| Date | Time | Temp. (oF) | Dew Point (oF) | Rel. Hum. (%) | Press. (in.) | Wind Dir. | Wind Speed (mph) | Hourly Rainfall (in.) |
|
|---|---|---|---|---|---|---|---|---|---|
| 1 | 03/04 | 00:00 | 31 | 15 | 53 | 29.92 | WNW | 12 | 0.00 |
| 2 | 03/03 | 23:00 | 33 | 18 | 55 | 29.89 | WNW | 11 | 0.00 |
| 3 | 03/03 | 22:00 | 35 | 20 | 55 | 29.87 | NW | 18 | 0.00 |
| 4 | 03/03 | 21:00 | 38 | 22 | 54 | 29.86 | W | 20 | 0.00 |
| 5 | 03/03 | 20:00 | 42 | 25 | 52 | 29.80 | NW | 13 | 0.00 |
| 6 | 03/03 | 19:00 | 44 | 26 | 51 | 29.77 | W | 13 | 0.00 |
| 7 | 03/03 | 18:00 | 47 | 32 | 58 | 29.76 | WNW | 11 | 0.00 |
| 8 | 03/03 | 17:00 | 49 | 37 | 65 | 29.69 | WNW | 13 | 0.00 |
| 9 | 03/03 | 16:00 | 58 | 51 | 78 | 29.61 | SW | 9 | 0.00 |
| 10 | 03/03 | 15:00 | 59 | 53 | 81 | 29.57 | S | 6 | 0.00 |
| 11 | 03/03 | 14:00 | 57 | 52 | 86 | 29.60 | SSW | 8 | 0.00 |
| 12 | 03/03 | 13:00 | 56 | 52 | 88 | 29.60 | SSW | 9 | 0.00 |
| 13 | 03/03 | 12:00 | 54 | 52 | 95 | 29.62 | S | 5 | 0.00 |
| 14 | 03/03 | 11:00 | 52 | 51 | 97 | 29.70 | S | 8 | 0.00 |
| 15 | 03/03 | 10:00 | 52 | 50 | 96 | 29.69 | SSE | 4 | 0.00 |
| 16 | 03/03 | 09:00 | 52 | 51 | 97 | 29.71 | SSW | 6 | 0.00 |
| 17 | 03/03 | 08:00 | 51 | 50 | 98 | 29.72 | WNW | 0 | 0.00 |
| 18 | 03/03 | 07:00 | 51 | 50 | 98 | 29.73 | S | 5 | 0.00 |
| 19 | 03/03 | 06:00 | 53 | 51 | 95 | 29.72 | SSW | 3 | 0.00 |
| 20 | 03/03 | 05:00 | 54 | 53 | 97 | 29.72 | SSW | 3 | 0.00 |
| 21 | 03/03 | 04:00 | 55 | 54 | 100 | 29.69 | SSW | 7 | 0.00 |
| 22 | 03/03 | 03:00 | 53 | 53 | 100 | 29.69 | S | 7 | 0.00 |
| 23 | 03/03 | 02:00 | 52 | 51 | 100 | 29.70 | S | 12 | 0.01 |
| 24 | 03/03 | 01:00 | 52 | 51 | 100 | 29.75 | SSE | 9 | 0.14 |